Time,TemperatureF,DewpointF,PressureIn,WindDirection,WindDirectionDegrees,WindSpeedMPH,WindSpeedGustMPH,Humidity,HourlyPrecipIn,Conditions,Clouds,dailyrainin,SolarRadiationWatts/m^2,SoftwareType,DateUTC
2013-05-22 00:01:00,53.0,28.0,-100.00,North,1,13.0,21.0,38,0.00,,,0.00,2.000000,,2013-05-22 07:01:00,
2013-05-22 00:11:00,53.0,28.0,-100.00,North,1,13.0,21.0,38,0.00,,,0.00,2.000000,,2013-05-22 07:11:00,
2013-05-22 00:32:00,52.0,25.0,-100.00,North,1,13.0,20.0,35,0.00,,,0.00,2.000000,,2013-05-22 07:32:00,
2013-05-22 00:42:00,52.0,25.0,-100.00,North,1,13.0,20.0,35,0.00,,,0.00,2.000000,,2013-05-22 07:42:00,
2013-05-22 00:52:00,52.0,25.0,-100.00,North,1,13.0,20.0,35,0.00,,,0.00,2.000000,,2013-05-22 07:52:00,
2013-05-22 01:02:00,52.0,25.0,-100.00,North,1,13.0,20.0,35,0.00,,,0.00,2.000000,,2013-05-22 08:02:00,
2013-05-22 01:11:00,52.0,25.0,-100.00,North,1,13.0,20.0,35,0.00,,,0.00,2.000000,,2013-05-22 08:11:00,
2013-05-22 01:32:00,53.0,25.0,-100.00,North,1,13.0,18.0,34,0.00,,,0.00,2.000000,,2013-05-22 08:32:00,
2013-05-22 01:42:00,53.0,25.0,-100.00,North,1,13.0,18.0,34,0.00,,,0.00,2.000000,,2013-05-22 08:42:00,
2013-05-22 01:52:00,53.0,25.0,-100.00,North,1,13.0,18.0,34,0.00,,,0.00,2.000000,,2013-05-22 08:52:00,
2013-05-22 02:01:00,53.0,25.0,-100.00,North,1,13.0,18.0,34,0.00,,,0.00,2.000000,,2013-05-22 09:01:00,
2013-05-22 02:11:00,53.0,25.0,-100.00,North,1,13.0,18.0,34,0.00,,,0.00,2.000000,,2013-05-22 09:11:00,
2013-05-22 02:33:00,53.0,25.0,-100.00,North,1,11.0,19.0,33,0.00,,,0.00,2.000000,,2013-05-22 09:33:00,
2013-05-22 02:42:00,53.0,25.0,-100.00,North,1,11.0,19.0,33,0.00,,,0.00,2.000000,,2013-05-22 09:42:00,
2013-05-22 02:53:00,53.0,25.0,-100.00,North,1,11.0,19.0,33,0.00,,,0.00,2.000000,,2013-05-22 09:53:00,
2013-05-22 03:02:00,53.0,25.0,-100.00,North,1,11.0,19.0,33,0.00,,,0.00,2.000000,,2013-05-22 10:02:00,
2013-05-22 03:12:00,53.0,25.0,-100.00,North,1,11.0,19.0,33,0.00,,,0.00,2.000000,,2013-05-22 10:12:00,
2013-05-22 03:33:00,52.0,22.0,-100.00,North,1,12.0,17.0,31,0.00,,,0.00,3.000000,,2013-05-22 10:33:00,
2013-05-22 03:42:00,52.0,22.0,-100.00,North,1,12.0,17.0,31,0.00,,,0.00,3.000000,,2013-05-22 10:42:00,
2013-05-22 03:52:00,52.0,22.0,-100.00,North,1,12.0,17.0,31,0.00,,,0.00,3.000000,,2013-05-22 10:52:00,
2013-05-22 04:02:00,52.0,22.0,-100.00,North,1,12.0,17.0,31,0.00,,,0.00,3.000000,,2013-05-22 11:02:00,
2013-05-22 04:11:00,52.0,22.0,-100.00,North,1,12.0,17.0,31,0.00,,,0.00,3.000000,,2013-05-22 11:11:00,
2013-05-22 04:32:00,52.0,22.0,-100.00,North,1,12.0,20.0,30,0.00,,,0.00,2.000000,,2013-05-22 11:32:00,
2013-05-22 04:42:00,52.0,22.0,-100.00,North,1,12.0,20.0,30,0.00,,,0.00,2.000000,,2013-05-22 11:42:00,
2013-05-22 04:52:00,52.0,22.0,-100.00,North,1,12.0,20.0,30,0.00,,,0.00,2.000000,,2013-05-22 11:52:00,
2013-05-22 05:02:00,52.0,22.0,-100.00,North,1,12.0,20.0,30,0.00,,,0.00,2.000000,,2013-05-22 12:02:00,
2013-05-22 05:11:00,52.0,22.0,-100.00,North,1,12.0,20.0,30,0.00,,,0.00,2.000000,,2013-05-22 12:11:00,
2013-05-22 05:32:00,51.0,21.0,-100.00,North,1,12.0,20.0,31,0.00,,,0.00,3.000000,,2013-05-22 12:32:00,
2013-05-22 05:42:00,51.0,21.0,-100.00,North,1,12.0,20.0,31,0.00,,,0.00,3.000000,,2013-05-22 12:42:00,
2013-05-22 05:52:00,51.0,21.0,-100.00,North,1,12.0,20.0,31,0.00,,,0.00,3.000000,,2013-05-22 12:52:00,
2013-05-22 06:01:00,51.0,21.0,-100.00,North,1,12.0,20.0,31,0.00,,,0.00,3.000000,,2013-05-22 13:01:00,
2013-05-22 06:11:00,51.0,21.0,-100.00,North,1,12.0,20.0,31,0.00,,,0.00,3.000000,,2013-05-22 13:11:00,
2013-05-22 06:32:00,52.0,25.0,-100.00,North,1,9.0,18.0,35,0.00,,,0.00,9.000000,,2013-05-22 13:32:00,
2013-05-22 06:42:00,52.0,25.0,-100.00,North,1,9.0,18.0,35,0.00,,,0.00,9.000000,,2013-05-22 13:42:00,
2013-05-22 06:52:00,52.0,25.0,-100.00,North,1,9.0,18.0,35,0.00,,,0.00,9.000000,,2013-05-22 13:52:00,
2013-05-22 07:02:00,52.0,25.0,-100.00,North,1,9.0,18.0,35,0.00,,,0.00,9.000000,,2013-05-22 14:02:00,
2013-05-22 07:11:00,52.0,25.0,-100.00,North,1,9.0,18.0,35,0.00,,,0.00,9.000000,,2013-05-22 14:11:00,
2013-05-22 07:32:00,54.0,26.0,-100.00,North,1,11.0,17.0,34,0.00,,,0.00,168.000000,,2013-05-22 14:32:00,
2013-05-22 07:42:00,54.0,26.0,-100.00,North,1,11.0,17.0,34,0.00,,,0.00,168.000000,,2013-05-22 14:42:00,
2013-05-22 07:52:00,54.0,26.0,-100.00,North,1,11.0,17.0,34,0.00,,,0.00,168.000000,,2013-05-22 14:52:00,
2013-05-22 08:01:00,54.0,26.0,-100.00,North,1,11.0,17.0,34,0.00,,,0.00,168.000000,,2013-05-22 15:01:00,
2013-05-22 08:11:00,54.0,26.0,-100.00,North,1,11.0,17.0,34,0.00,,,0.00,168.000000,,2013-05-22 15:11:00,
2013-05-22 08:33:00,56.0,31.0,-100.00,North,1,9.0,16.0,38,0.00,,,0.00,415.000000,,2013-05-22 15:33:00,
2013-05-22 08:43:00,56.0,31.0,-100.00,North,1,9.0,16.0,38,0.00,,,0.00,415.000000,,2013-05-22 15:43:00,
2013-05-22 08:53:00,56.0,31.0,-100.00,North,1,9.0,16.0,38,0.00,,,0.00,415.000000,,2013-05-22 15:53:00,
2013-05-22 09:03:00,56.0,31.0,-100.00,North,1,9.0,16.0,38,0.00,,,0.00,415.000000,,2013-05-22 16:03:00,
2013-05-22 09:12:00,56.0,31.0,-100.00,North,1,9.0,16.0,38,0.00,,,0.00,415.000000,,2013-05-22 16:12:00,
2013-05-22 09:33:00,55.0,31.0,-100.00,North,1,10.0,17.0,40,0.00,,,0.00,654.000000,,2013-05-22 16:33:00,
2013-05-22 09:42:00,55.0,31.0,-100.00,North,1,10.0,17.0,40,0.00,,,0.00,654.000000,,2013-05-22 16:42:00,
2013-05-22 09:52:00,55.0,31.0,-100.00,North,1,10.0,17.0,40,0.00,,,0.00,654.000000,,2013-05-22 16:52:00,
2013-05-22 10:02:00,55.0,31.0,-100.00,North,1,10.0,17.0,40,0.00,,,0.00,654.000000,,2013-05-22 17:02:00,
2013-05-22 10:11:00,55.0,31.0,-100.00,North,1,10.0,17.0,40,0.00,,,0.00,654.000000,,2013-05-22 17:11:00,
2013-05-22 10:33:00,57.0,38.0,-100.00,North,1,11.0,15.0,48,0.00,,,0.00,869.000000,,2013-05-22 17:33:00,
2013-05-22 10:42:00,57.0,38.0,-100.00,North,1,11.0,15.0,48,0.00,,,0.00,869.000000,,2013-05-22 17:42:00,
2013-05-22 10:53:00,57.0,38.0,-100.00,North,1,11.0,15.0,48,0.00,,,0.00,869.000000,,2013-05-22 17:53:00,
2013-05-22 11:02:00,57.0,38.0,-100.00,North,1,11.0,15.0,48,0.00,,,0.00,869.000000,,2013-05-22 18:02:00,
2013-05-22 11:14:00,57.0,38.0,-100.00,North,1,11.0,15.0,48,0.00,,,0.00,869.000000,,2013-05-22 18:14:00,
2013-05-22 11:34:00,57.0,38.0,-100.00,North,1,10.0,15.0,48,0.00,,,0.00,1031.000000,,2013-05-22 18:34:00,
2013-05-22 11:42:00,57.0,38.0,-100.00,North,1,10.0,15.0,48,0.00,,,0.00,1031.000000,,2013-05-22 18:42:00,
2013-05-22 11:52:00,57.0,38.0,-100.00,North,1,10.0,15.0,48,0.00,,,0.00,1031.000000,,2013-05-22 18:52:00,
2013-05-22 12:02:00,57.0,38.0,-100.00,North,1,10.0,15.0,48,0.00,,,0.00,1031.000000,,2013-05-22 19:02:00,
2013-05-22 12:11:00,57.0,38.0,-100.00,North,1,10.0,15.0,48,0.00,,,0.00,1031.000000,,2013-05-22 19:11:00,
2013-05-22 12:32:00,58.0,41.0,-100.00,North,1,14.0,22.0,54,0.00,,,0.00,1129.000000,,2013-05-22 19:32:00,
2013-05-22 12:42:00,58.0,41.0,-100.00,North,1,14.0,22.0,54,0.00,,,0.00,1129.000000,,2013-05-22 19:42:00,
2013-05-22 12:52:00,58.0,41.0,-100.00,North,1,14.0,22.0,54,0.00,,,0.00,1129.000000,,2013-05-22 19:52:00,
2013-05-22 13:02:00,58.0,41.0,-100.00,North,1,14.0,22.0,54,0.00,,,0.00,1129.000000,,2013-05-22 20:02:00,
2013-05-22 13:11:00,58.0,41.0,-100.00,North,1,14.0,22.0,54,0.00,,,0.00,1129.000000,,2013-05-22 20:11:00,
2013-05-22 13:32:00,58.0,42.0,-100.00,North,1,17.0,26.0,56,0.00,,,0.00,1163.000000,,2013-05-22 20:32:00,
2013-05-22 13:42:00,58.0,42.0,-100.00,North,1,17.0,26.0,56,0.00,,,0.00,1163.000000,,2013-05-22 20:42:00,
2013-05-22 13:52:00,58.0,42.0,-100.00,North,1,17.0,26.0,56,0.00,,,0.00,1163.000000,,2013-05-22 20:52:00,
2013-05-22 14:01:00,58.0,42.0,-100.00,North,1,17.0,26.0,56,0.00,,,0.00,1163.000000,,2013-05-22 21:01:00,
2013-05-22 14:11:00,58.0,42.0,-100.00,North,1,17.0,26.0,56,0.00,,,0.00,1163.000000,,2013-05-22 21:11:00,
2013-05-22 14:33:00,59.0,43.0,-100.00,North,1,18.0,26.0,56,0.00,,,0.00,1142.000000,,2013-05-22 21:33:00,
2013-05-22 14:42:00,59.0,43.0,-100.00,North,1,18.0,26.0,56,0.00,,,0.00,1142.000000,,2013-05-22 21:42:00,
2013-05-22 14:53:00,59.0,43.0,-100.00,North,1,18.0,26.0,56,0.00,,,0.00,1142.000000,,2013-05-22 21:53:00,
2013-05-22 15:03:00,59.0,43.0,-100.00,North,1,18.0,26.0,56,0.00,,,0.00,1142.000000,,2013-05-22 22:03:00,
2013-05-22 15:12:00,59.0,43.0,-100.00,North,1,18.0,26.0,56,0.00,,,0.00,1142.000000,,2013-05-22 22:12:00,
2013-05-22 15:42:00,58.0,39.0,-100.00,North,1,20.0,29.0,49,0.00,,,0.00,1056.000000,,2013-05-22 22:42:00,
2013-05-22 15:52:00,58.0,39.0,-100.00,North,1,20.0,29.0,49,0.00,,,0.00,1056.000000,,2013-05-22 22:52:00,
2013-05-22 16:02:00,58.0,39.0,-100.00,North,1,20.0,29.0,49,0.00,,,0.00,1056.000000,,2013-05-22 23:02:00,
2013-05-22 16:12:00,58.0,39.0,-100.00,North,1,20.0,29.0,49,0.00,,,0.00,1056.000000,,2013-05-22 23:12:00,
2013-05-22 16:42:00,58.0,44.0,-100.00,North,1,15.0,27.0,60,0.00,,,0.00,897.000000,,2013-05-22 23:42:00,
2013-05-22 16:52:00,58.0,44.0,-100.00,North,1,15.0,27.0,60,0.00,,,0.00,897.000000,,2013-05-22 23:52:00,
2013-05-22 17:01:00,58.0,44.0,-100.00,North,1,15.0,27.0,60,0.00,,,0.00,897.000000,,2013-05-23 00:01:00,
2013-05-22 17:11:00,58.0,44.0,-100.00,North,1,15.0,27.0,60,0.00,,,0.00,897.000000,,2013-05-23 00:11:00,
2013-05-22 18:32:00,51.0,47.0,-100.00,North,1,17.0,24.0,85,-99.99,,,0.00,387.000000,,2013-05-23 01:32:00,
2013-05-22 18:52:00,51.0,47.0,-100.00,North,1,17.0,24.0,85,-99.99,,,0.00,387.000000,,2013-05-23 01:52:00,
2013-05-22 19:01:00,51.0,47.0,-100.00,North,1,17.0,24.0,85,-99.99,,,0.00,387.000000,,2013-05-23 02:01:00,
2013-05-22 19:11:00,51.0,47.0,-100.00,North,1,17.0,24.0,85,-99.99,,,0.00,387.000000,,2013-05-23 02:11:00,
2013-05-22 19:32:00,47.0,47.0,-100.00,North,1,14.0,24.0,100,0.00,,,0.00,70.000000,,2013-05-23 02:32:00,
2013-05-22 19:42:00,47.0,47.0,-100.00,North,1,14.0,24.0,100,0.00,,,0.00,70.000000,,2013-05-23 02:42:00,
2013-05-22 19:51:00,47.0,47.0,-100.00,North,1,14.0,24.0,100,0.00,,,0.00,70.000000,,2013-05-23 02:51:00,
2013-05-22 20:01:00,47.0,47.0,-100.00,North,1,14.0,24.0,100,0.00,,,0.00,70.000000,,2013-05-23 03:01:00,
2013-05-22 20:11:00,47.0,47.0,-100.00,North,1,14.0,24.0,100,0.00,,,0.00,70.000000,,2013-05-23 03:11:00,
2013-05-22 20:33:00,47.0,47.0,-100.00,North,1,15.0,20.0,100,0.00,,,0.00,7.000000,,2013-05-23 03:33:00,
2013-05-22 20:43:00,47.0,47.0,-100.00,North,1,15.0,20.0,100,0.00,,,0.00,7.000000,,2013-05-23 03:43:00,
2013-05-22 20:53:00,47.0,47.0,-100.00,North,1,15.0,20.0,100,0.00,,,0.00,7.000000,,2013-05-23 03:53:00,
2013-05-22 21:02:00,47.0,47.0,-100.00,North,1,15.0,20.0,100,0.00,,,0.00,7.000000,,2013-05-23 04:02:00,
2013-05-22 21:12:00,47.0,47.0,-100.00,North,1,15.0,20.0,100,0.00,,,0.00,7.000000,,2013-05-23 04:12:00,
2013-05-22 21:33:00,46.0,46.0,-100.00,North,1,14.0,21.0,100,0.00,,,0.00,1.000000,,2013-05-23 04:33:00,
2013-05-22 21:43:00,46.0,46.0,-100.00,North,1,14.0,21.0,100,0.00,,,0.00,1.000000,,2013-05-23 04:43:00,
2013-05-22 21:52:00,46.0,46.0,-100.00,North,1,14.0,21.0,100,0.00,,,0.00,1.000000,,2013-05-23 04:52:00,
2013-05-22 22:02:00,46.0,46.0,-100.00,North,1,14.0,21.0,100,0.00,,,0.00,1.000000,,2013-05-23 05:02:00,
2013-05-22 22:11:00,46.0,46.0,-100.00,North,1,14.0,21.0,100,0.00,,,0.00,1.000000,,2013-05-23 05:11:00,
2013-05-22 22:32:00,45.0,45.0,-100.00,North,1,13.0,23.0,100,0.00,,,0.00,1.000000,,2013-05-23 05:32:00,
2013-05-22 22:43:00,45.0,45.0,-100.00,North,1,13.0,23.0,100,0.00,,,0.00,1.000000,,2013-05-23 05:43:00,
2013-05-22 22:52:00,45.0,45.0,-100.00,North,1,13.0,23.0,100,0.00,,,0.00,1.000000,,2013-05-23 05:52:00,
2013-05-22 23:02:00,45.0,45.0,-100.00,North,1,13.0,23.0,100,0.00,,,0.00,1.000000,,2013-05-23 06:02:00,
2013-05-22 23:11:00,45.0,45.0,-100.00,North,1,13.0,23.0,100,0.00,,,0.00,1.000000,,2013-05-23 06:11:00,
2013-05-22 23:32:00,42.0,42.0,-100.00,North,1,14.0,20.0,100,0.00,,,0.00,1.000000,,2013-05-23 06:32:00,
2013-05-22 23:42:00,42.0,42.0,-100.00,North,1,14.0,20.0,100,0.00,,,0.00,1.000000,,2013-05-23 06:42:00,
2013-05-22 23:52:00,42.0,42.0,-100.00,North,1,14.0,20.0,100,0.00,,,0.00,1.000000,,2013-05-23 06:52:00,